Time;durP1;ratioP1;P1;durP2;ratioP2;P2;SDS_P1;SDS_P2;PMS_P1;PMS_P2;Temp;Humidity;BMP_temperature;BMP_pressure;BME280_temperature;BME280_humidity;BME280_pressure;Samples;Min_cycle;Max_cycle;Signal;HPM_P1;HPM_P2
2022/06/27 00:00:22;;;;;;;;;5.00;4.75;;;;;22.33;48.19;100923.38;2081273;28;47073;-50
2022/06/27 00:01:23;;;;;;;;;4.00;4.00;;;;;22.33;48.58;100919.78;2086727;28;47703;-48
2022/06/27 00:02:24;;;;;;;;;4.00;2.00;;;;;22.33;48.02;100917.09;2086957;28;47365;-47
2022/06/27 00:03:25;;;;;;;;;5.00;4.00;;;;;22.31;48.62;100913.63;2087499;28;47524;-51
2022/06/27 00:04:25;;;;;;;;;2.33;2.00;;;;;22.31;48.29;100917.19;2087513;28;47738;-48
2022/06/27 00:05:25;;;;;;;;;3.00;3.00;;;;;22.31;48.34;100908.22;2087584;28;47642;-48
2022/06/27 00:06:26;;;;;;;;;4.00;4.00;;;;;22.30;48.07;100901.09;2086395;28;47302;-52
2022/06/27 00:07:26;;;;;;;;;13.25;13.25;;;;;22.30;48.66;100910.06;2078186;28;46487;-49
2022/06/27 00:08:27;;;;;;;;;5.00;5.00;;;;;22.30;48.48;100910.06;2087362;28;48029;-50
2022/06/27 00:09:27;;;;;;;;;9.00;7.75;;;;;22.29;48.32;100911.03;2088002;28;47292;-49
2022/06/27 00:10:27;;;;;;;;;5.50;5.00;;;;;22.28;48.35;100909.31;2086325;28;48002;-51
2022/06/27 00:11:28;;;;;;;;;3.25;3.25;;;;;22.28;48.59;100903.91;2089062;28;47774;-49
2022/06/27 00:12:29;;;;;;;;;22.00;21.25;;;;;22.28;48.41;100903.91;2089062;28;47498;-48
2022/06/27 00:13:29;;;;;;;;;23.50;22.75;;;;;22.27;48.46;100909.41;2088856;28;47098;-48
2022/06/27 00:14:30;;;;;;;;;7.00;7.00;;;;;22.24;48.60;100913.19;2089086;28;47632;-49
2022/06/27 00:15:30;;;;;;;;;6.00;5.00;;;;;22.24;48.77;100915.03;2088672;28;47891;-48
2022/06/27 00:16:31;;;;;;;;;4.00;4.00;;;;;22.23;48.29;100911.47;2086572;28;47917;-48
2022/06/27 00:17:31;;;;;;;;;4.00;3.25;;;;;22.21;48.55;100913.38;2086945;28;47876;-48
2022/06/27 00:18:32;;;;;;;;;7.75;7.75;;;;;22.19;48.36;100912.63;2090443;28;47857;-49
2022/06/27 00:19:32;;;;;;;;;7.75;7.75;;;;;22.18;48.63;100918.13;2089436;28;47226;-49
2022/06/27 00:20:32;;;;;;;;;15.25;13.25;;;;;22.15;48.62;100930.03;2089443;28;46473;-52
2022/06/27 00:21:33;;;;;;;;;10.00;10.00;;;;;22.15;49.00;100931.84;2088995;28;47861;-47
2022/06/27 00:22:33;;;;;;;;;14.50;13.00;;;;;22.13;48.82;100923.84;2086919;28;47747;-51
2022/06/27 00:23:34;;;;;;;;;5.50;5.50;;;;;22.12;48.71;100922.13;2086201;28;47646;-49
2022/06/27 00:24:34;;;;;;;;;7.00;5.75;;;;;22.11;48.54;100928.50;2082483;28;47862;-50
2022/06/27 00:25:34;;;;;;;;;3.50;3.50;;;;;22.10;48.68;100921.31;2086723;28;47524;-51
2022/06/27 00:26:35;;;;;;;;;3.33;3.33;;;;;22.10;48.60;100924.03;2088367;28;47663;-52
2022/06/27 00:27:35;;;;;;;;;3.67;3.67;;;;;22.11;48.64;100924.94;2087968;28;47337;-51
2022/06/27 00:28:36;;;;;;;;;3.33;3.33;;;;;22.09;48.65;100922.31;2087094;28;47874;-53
2022/06/27 00:29:36;;;;;;;;;3.67;2.67;;;;;22.08;48.71;100923.28;2088105;28;48350;-50
2022/06/27 00:30:37;;;;;;;;;2.67;2.67;;;;;22.08;48.59;100917.88;2088822;28;47214;-51
2022/06/27 00:31:37;;;;;;;;;3.00;3.00;;;;;22.08;48.41;100912.47;2085734;28;47810;-50
2022/06/27 00:32:38;;;;;;;;;2.00;2.00;;;;;22.07;48.03;100909.88;2080693;28;47509;-52
2022/06/27 00:33:38;;;;;;;;;3.25;3.25;;;;;22.06;48.00;100905.44;2079771;28;47303;-52
2022/06/27 00:34:39;;;;;;;;;3.50;2.50;;;;;22.05;47.89;100904.53;2081733;28;47610;-52
2022/06/27 00:35:39;;;;;;;;;4.00;4.00;;;;;22.04;48.40;100903.66;2089016;28;47036;-52
2022/06/27 00:36:40;;;;;;;;;9.25;8.25;;;;;22.04;48.63;100910.91;2088519;28;47899;-48
2022/06/27 00:37:40;;;;;;;;;6.00;6.00;;;;;22.02;48.36;100902.91;2089070;28;47881;-47
2022/06/27 00:38:41;;;;;;;;;3.33;3.33;;;;;22.02;48.15;100902.03;2088704;28;47337;-51
2022/06/27 00:39:41;;;;;;;;;4.00;4.00;;;;;22.01;48.57;100901.16;2089032;28;47734;-51
2022/06/27 00:40:42;;;;;;;;;3.00;3.00;;;;;22.01;48.39;100901.16;2088098;28;47346;-49
2022/06/27 00:41:42;;;;;;;;;4.00;4.00;;;;;22.00;48.60;100902.16;2088186;28;46258;-52
2022/06/27 00:42:43;;;;;;;;;4.33;4.00;;;;;22.00;48.23;100906.69;2088959;28;48005;-48
2022/06/27 00:43:44;;;;;;;;;6.00;4.00;;;;;21.98;48.76;100904.09;2087814;28;47696;-49
2022/06/27 00:44:45;;;;;;;;;2.00;2.00;;;;;21.99;48.51;100907.66;2087026;28;47568;-50
2022/06/27 00:45:45;;;;;;;;;3.00;3.00;;;;;21.97;48.78;100904.16;2084171;28;47968;-51
2022/06/27 00:46:46;;;;;;;;;5.00;4.00;;;;;21.96;48.89;100908.69;2088642;28;47502;-51
2022/06/27 00:47:46;;;;;;;;;3.67;3.67;;;;;21.95;48.26;100911.50;2088914;28;47600;-49
2022/06/27 00:48:47;;;;;;;;;3.67;3.00;;;;;21.94;48.56;100912.47;2088478;28;47827;-51
2022/06/27 00:49:47;;;;;;;;;4.00;3.00;;;;;21.92;49.00;100909.88;2088841;28;47387;-52
2022/06/27 00:50:47;;;;;;;;;4.33;4.00;;;;;21.92;48.29;100909.00;2088917;28;47869;-49
2022/06/27 00:51:48;;;;;;;;;2.67;2.67;;;;;21.90;48.76;100903.72;2087267;28;47353;-49
2022/06/27 00:52:48;;;;;;;;;3.00;3.00;;;;;21.90;48.49;100909.13;2087587;28;48157;-51
2022/06/27 00:53:49;;;;;;;;;2.00;2.00;;;;;21.89;48.65;100907.38;2088718;28;47922;-50
2022/06/27 00:54:49;;;;;;;;;5.00;4.67;;;;;21.88;48.31;100916.47;2089441;28;47548;-49
2022/06/27 00:55:50;;;;;;;;;7.00;3.33;;;;;21.89;48.83;100914.63;2088624;28;47543;-49
2022/06/27 00:56:53;;;;;;;;;3.75;3.75;;;;;21.88;48.44;100908.34;2088541;28;47619;-51
2022/06/27 00:57:53;;;;;;;;;3.75;3.75;;;;;21.89;49.03;100906.53;2084502;28;47572;-51
2022/06/27 00:58:54;;;;;;;;;8.00;6.00;;;;;21.89;48.57;100904.69;2086182;28;47198;-52
2022/06/27 00:59:54;;;;;;;;;4.00;4.00;;;;;21.87;48.69;100909.31;2088014;28;47618;-51
2022/06/27 01:00:55;;;;;;;;;4.00;4.00;;;;;21.87;48.76;100903.94;2085063;28;47621;-52
2022/06/27 01:01:55;;;;;;;;;2.67;2.67;;;;;21.86;49.13;100906.72;2088911;28;47879;-52
2022/06/27 01:02:55;;;;;;;;;3.00;3.00;;;;;21.87;48.47;100917.44;2088809;28;47786;-49
2022/06/27 01:04:00;;;;;;;;;4.00;3.67;;;;;21.86;48.46;100920.25;2088613;28;47462;-51
2022/06/27 01:05:00;;;;;;;;;2.50;2.50;;;;;21.86;48.74;100926.50;2088682;28;48126;-50
2022/06/27 01:06:03;;;;;;;;;2.33;2.33;;;;;21.87;48.49;100932.78;2088788;28;47703;-50
2022/06/27 01:07:06;;;;;;;;;5.75;4.75;;;;;21.86;49.08;100934.63;2088514;28;47761;-50
2022/06/27 01:08:07;;;;;;;;;2.00;2.00;;;;;21.87;48.56;100930.06;2081125;28;47494;-49
2022/06/27 01:09:07;;;;;;;;;3.33;3.33;;;;;21.86;48.44;100923.81;2080300;28;47739;-53
2022/06/27 01:10:09;;;;;;;;;3.00;3.00;;;;;21.86;48.82;100923.81;2080141;28;47187;-47
2022/06/27 01:11:09;;;;;;;;;2.00;2.00;;;;;21.86;48.98;100922.94;2080404;28;47856;-52
2022/06/27 01:12:10;;;;;;;;;2.67;2.67;;;;;21.86;48.79;100922.94;2080359;28;47285;-52
2022/06/27 01:13:11;;;;;;;;;4.75;4.00;;;;;21.86;48.96;100928.34;2080219;28;47994;-50
2022/06/27 01:14:12;;;;;;;;;3.67;3.00;;;;;21.85;48.77;100930.19;2080167;28;47329;-50
2022/06/27 01:15:12;;;;;;;;;3.00;3.00;;;;;21.84;48.61;100923.00;2080149;28;47676;-50
2022/06/27 01:16:14;;;;;;;;;3.00;3.00;;;;;21.83;48.89;100920.41;2079964;28;47494;-48
2022/06/27 01:17:14;;;;;;;;;3.25;3.25;;;;;21.84;48.79;100917.59;2080096;28;47808;-48
2022/06/27 01:18:15;;;;;;;;;3.33;3.33;;;;;21.83;48.77;100921.28;2080825;28;47884;-51
2022/06/27 01:19:17;;;;;;;;;5.25;4.75;;;;;21.83;48.59;100926.69;2097402;28;48120;-51
2022/06/27 01:20:17;;;;;;;;;4.75;4.75;;;;;21.83;48.55;100915.88;2095437;28;47275;-50
2022/06/27 01:21:31;;;;;;;;;3.00;3.00;;;;;21.83;48.52;100917.72;2088297;28;47614;-51
2022/06/27 01:22:31;;;;;;;;;6.00;4.20;;;;;21.83;48.21;100906.91;2088072;28;47590;-49
2022/06/27 01:23:35;;;;;;;;;6.00;6.00;;;;;21.83;48.42;100917.72;2086924;28;47728;-48
2022/06/27 01:24:36;;;;;;;;;4.75;4.75;;;;;21.81;48.34;100915.13;2080212;28;48004;-49
2022/06/27 01:25:37;;;;;;;;;3.67;3.67;;;;;21.82;48.28;100916.84;2080077;28;47678;-51
2022/06/27 01:26:40;;;;;;;;;3.25;3.25;;;;;21.81;48.57;100920.53;2080421;28;47536;-52
2022/06/27 01:27:42;;;;;;;;;3.00;3.00;;;;;21.81;48.67;100927.75;2088188;28;48019;-48
2022/06/27 01:28:43;;;;;;;;;4.25;4.25;;;;;21.81;48.25;100936.72;2095679;28;48316;-50
2022/06/27 01:29:43;;;;;;;;;3.00;3.00;;;;;21.82;47.98;100932.19;2088493;28;47683;-49
2022/06/27 01:30:44;;;;;;;;;2.67;2.00;;;;;21.82;48.18;100933.06;2088201;28;47074;-49
2022/06/27 01:31:45;;;;;;;;;3.00;3.00;;;;;21.82;48.26;100932.19;2088217;28;47289;-48
2022/06/27 01:32:45;;;;;;;;;1.00;1.00;;;;;21.82;47.88;100935.75;2088981;28;47659;-50
2022/06/27 01:33:46;;;;;;;;;4.00;3.00;;;;;21.82;48.06;100937.59;2088216;28;47650;-51
2022/06/27 01:34:46;;;;;;;;;2.00;2.00;;;;;21.80;48.00;100943.09;2088071;28;47722;-51
2022/06/27 01:35:46;;;;;;;;;4.67;4.33;;;;;21.80;48.23;100943.09;2088220;28;46663;-51
2022/06/27 01:36:47;;;;;;;;;4.67;3.00;;;;;21.80;48.14;100943.09;2088547;28;47406;-50
2022/06/27 01:37:48;;;;;;;;;1.00;1.00;;;;;21.79;47.79;100941.38;2088474;28;47347;-50
2022/06/27 01:38:50;;;;;;;;;2.67;2.67;;;;;21.80;48.35;100944.94;2088303;28;47470;-48
2022/06/27 01:39:51;;;;;;;;;2.25;2.25;;;;;21.79;47.59;100943.22;2088321;28;48026;-49
2022/06/27 01:40:51;;;;;;;;;2.00;2.00;;;;;21.78;47.91;100941.47;2088168;28;47674;-51
2022/06/27 01:41:56;;;;;;;;;3.00;3.00;;;;;21.77;48.30;100948.72;2088343;28;47918;-49
2022/06/27 01:42:57;;;;;;;;;2.00;2.00;;;;;21.77;47.86;100947.84;2082232;28;48101;-51
2022/06/27 01:43:57;;;;;;;;;2.33;2.33;;;;;21.76;48.33;100951.50;2088378;28;47647;-48
2022/06/27 01:44:58;;;;;;;;;3.00;3.00;;;;;21.74;47.77;100949.78;2088021;28;47451;-49
2022/06/27 01:45:58;;;;;;;;;2.33;2.33;;;;;21.73;48.02;100941.78;2084994;28;47675;-49
2022/06/27 01:46:58;;;;;;;;;4.33;4.33;;;;;21.73;48.56;100941.78;2084694;28;47574;-50
2022/06/27 01:47:59;;;;;;;;;2.00;2.00;;;;;21.73;48.14;100937.25;2087475;28;47114;-49
2022/06/27 01:48:59;;;;;;;;;2.67;2.67;;;;;21.73;48.57;100947.19;2087535;28;48395;-48
2022/06/27 01:50:00;;;;;;;;;3.00;3.00;;;;;21.72;48.40;100937.31;2088476;28;47340;-49
2022/06/27 01:51:01;;;;;;;;;2.00;2.00;;;;;21.73;47.97;100936.38;2096716;28;47117;-50
2022/06/27 01:52:04;;;;;;;;;2.50;1.75;;;;;21.72;48.12;100932.81;2087664;28;47724;-49
2022/06/27 01:53:05;;;;;;;;;3.00;3.00;;;;;21.71;48.08;100931.03;2088009;28;47647;-50
2022/06/27 01:54:10;;;;;;;;;3.33;2.33;;;;;21.70;48.33;100934.72;2088547;28;47691;-52
2022/06/27 01:55:11;;;;;;;;;3.00;3.00;;;;;21.70;48.13;100934.72;2094805;28;47423;-49
2022/06/27 01:56:11;;;;;;;;;3.67;3.33;;;;;21.70;48.43;100936.56;2095193;28;47406;-50
2022/06/27 01:57:16;;;;;;;;;2.67;2.67;;;;;21.69;48.30;100927.59;2088281;28;47756;-53
2022/06/27 01:58:17;;;;;;;;;3.50;3.50;;;;;21.68;48.78;100928.56;2087915;28;48044;-53
2022/06/27 01:59:20;;;;;;;;;2.25;2.00;;;;;21.68;48.58;100925.00;2088723;28;47430;-49
2022/06/27 02:00:21;;;;;;;;;1.25;1.25;;;;;21.69;48.36;100926.72;2088288;28;47690;-51
2022/06/27 02:01:21;;;;;;;;;1.33;1.33;;;;;21.68;47.99;100928.56;2088242;28;47852;-50
2022/06/27 02:02:21;;;;;;;;;2.33;2.33;;;;;21.69;48.58;100930.28;2087817;28;47309;-52
2022/06/27 02:03:23;;;;;;;;;2.00;2.00;;;;;21.70;48.37;100917.66;2087638;28;47299;-51
2022/06/27 02:04:24;;;;;;;;;2.00;2.00;;;;;21.70;48.12;100923.03;2087369;28;48093;-50
2022/06/27 02:05:25;;;;;;;;;1.25;1.25;;;;;21.69;48.52;100924.00;2088417;28;48154;-48
2022/06/27 02:06:28;;;;;;;;;2.00;2.00;;;;;21.69;48.43;100922.19;2088412;28;47201;-53
2022/06/27 02:07:28;;;;;;;;;2.75;1.75;;;;;21.70;48.20;100923.91;2087883;28;48011;-47
2022/06/27 02:08:29;;;;;;;;;3.00;3.00;;;;;21.70;48.55;100926.63;2095002;28;46532;-49
2022/06/27 02:09:30;;;;;;;;;3.00;3.00;;;;;21.69;48.71;100924.88;2095605;28;47428;-48
2022/06/27 02:10:30;;;;;;;;;2.00;2.00;;;;;21.71;48.40;100922.06;2088278;28;47264;-50
2022/06/27 02:11:31;;;;;;;;;2.00;2.00;;;;;21.70;48.27;100921.22;2088162;28;47887;-47
2022/06/27 02:12:32;;;;;;;;;2.00;2.00;;;;;21.70;48.51;100923.91;2087812;28;48560;-50
2022/06/27 02:13:33;;;;;;;;;3.67;3.67;;;;;21.69;48.23;100915.91;2088105;28;47650;-51
2022/06/27 02:14:33;;;;;;;;;2.75;2.75;;;;;21.68;48.51;100915.03;2088341;28;47150;-50
2022/06/27 02:15:34;;;;;;;;;1.67;1.00;;;;;21.67;48.51;100907.91;2088103;28;47477;-52
2022/06/27 02:16:35;;;;;;;;;2.75;2.25;;;;;21.66;48.67;100911.59;2087924;28;47911;-51
2022/06/27 02:17:35;;;;;;;;;3.67;2.67;;;;;21.65;48.23;100915.25;2087752;28;48220;-50
2022/06/27 02:18:37;;;;;;;;;2.00;2.00;;;;;21.65;48.54;100915.25;2090929;28;48232;-49
2022/06/27 02:19:37;;;;;;;;;2.50;2.50;;;;;21.65;48.54;100914.38;2088079;28;47254;-50
2022/06/27 02:20:38;;;;;;;;;3.00;3.00;;;;;21.64;48.18;100907.25;2088293;28;47645;-51
2022/06/27 02:21:39;;;;;;;;;4.00;3.67;;;;;21.65;48.25;100914.38;2088149;28;47279;-51
2022/06/27 02:22:40;;;;;;;;;2.50;2.50;;;;;21.64;48.88;100910.81;2087457;28;47834;-49
2022/06/27 02:23:40;;;;;;;;;2.67;2.67;;;;;21.66;48.17;100908.03;2088135;28;47311;-52
2022/06/27 02:24:42;;;;;;;;;2.00;2.00;;;;;21.65;48.67;100909.00;2088114;28;47921;-49
2022/06/27 02:25:43;;;;;;;;;2.50;2.50;;;;;21.64;48.69;100909.94;2087029;28;47799;-49
2022/06/27 02:26:45;;;;;;;;;2.33;2.33;;;;;21.62;48.75;100909.19;2088066;28;47863;-51
2022/06/27 02:27:48;;;;;;;;;3.00;2.75;;;;;21.62;48.44;100911.91;2087762;28;48067;-52
2022/06/27 02:28:50;;;;;;;;;3.25;3.25;;;;;21.59;48.80;100909.38;2088134;28;47734;-47
2022/06/27 02:29:51;;;;;;;;;2.75;2.75;;;;;21.58;48.54;100911.19;2088444;28;45457;-48
2022/06/27 02:30:52;;;;;;;;;3.67;3.67;;;;;21.57;48.39;100920.28;2087322;28;47581;-49
2022/06/27 02:31:52;;;;;;;;;2.00;2.00;;;;;21.57;48.73;100916.69;2087882;28;47700;-49
2022/06/27 02:32:53;;;;;;;;;2.00;2.00;;;;;21.55;48.41;100918.63;2087556;28;47299;-52
2022/06/27 02:33:54;;;;;;;;;5.00;2.00;;;;;21.54;48.52;100927.72;2088015;28;47385;-51
2022/06/27 02:34:56;;;;;;;;;4.25;2.50;;;;;21.54;49.01;100925.00;2088039;28;47514;-51
2022/06/27 02:35:57;;;;;;;;;2.00;2.00;;;;;21.51;48.57;100919.81;2087938;28;46286;-51
2022/06/27 02:36:59;;;;;;;;;2.00;2.00;;;;;21.51;48.94;100920.69;2088374;28;46779;-50
2022/06/27 02:38:01;;;;;;;;;0.25;0.25;;;;;21.52;48.49;100918.84;2087918;28;47692;-47
2022/06/27 02:39:02;;;;;;;;;1.75;1.00;;;;;21.53;48.85;100920.56;2087492;28;47856;-49
2022/06/27 02:40:03;;;;;;;;;2.50;2.50;;;;;21.54;48.89;100922.31;2086928;28;47554;-47
2022/06/27 02:41:07;;;;;;;;;3.00;3.00;;;;;21.54;48.96;100917.78;2076148;28;47718;-48
2022/06/27 02:42:10;;;;;;;;;2.25;1.00;;;;;21.56;49.18;100913.13;2072931;28;47387;-50
2022/06/27 02:43:13;;;;;;;;;1.75;1.75;;;;;21.59;48.52;100922.88;2086546;28;47814;-50
2022/06/27 02:44:14;;;;;;;;;2.25;2.25;;;;;21.58;48.93;100919.31;2087938;28;47869;-48
2022/06/27 02:45:15;;;;;;;;;3.00;3.00;;;;;21.59;49.09;100921.03;2087687;28;47295;-50
2022/06/27 02:46:16;;;;;;;;;2.00;2.00;;;;;21.60;48.55;100920.09;2082074;28;47397;-48
2022/06/27 02:47:21;;;;;;;;;3.00;2.00;;;;;21.62;48.76;100925.41;2087161;28;47405;-47
2022/06/27 02:48:26;;;;;;;;;3.75;2.75;;;;;21.63;48.56;100928.00;2087284;28;48089;-49
2022/06/27 02:49:27;;;;;;;;;2.50;2.50;;;;;21.63;48.54;100924.44;2079741;28;47930;-48
2022/06/27 02:50:32;;;;;;;;;2.25;2.25;;;;;21.62;48.48;100920.88;2086614;28;47613;-47
2022/06/27 02:52:03;;;;;;;;;2.00;2.00;;;;;21.63;48.68;100927.13;2088128;28;47502;-47
2022/06/27 02:53:09;;;;;;;;;2.60;2.00;;;;;21.61;48.28;100932.63;2070258;28;47083;-50
2022/06/27 02:54:19;;;;;;;;;2.00;2.00;;;;;21.61;48.61;100931.78;2062385;28;47708;-48
2022/06/27 02:55:26;;;;;;;;;2.40;2.40;;;;;21.59;48.27;100928.28;2069476;28;47909;-46
2022/06/27 02:56:27;;;;;;;;;2.40;2.00;;;;;21.58;48.21;100934.63;2070771;28;47689;-48
2022/06/27 02:57:38;;;;;;;;;2.20;2.20;;;;;21.57;48.80;100936.47;2070659;28;47567;-48
2022/06/27 02:58:50;;;;;;;;;3.20;3.20;;;;;21.57;48.55;100944.56;2069845;28;48159;-49
2022/06/27 02:59:55;;;;;;;;;3.20;3.20;;;;;21.55;48.74;100941.09;2068874;28;47614;-48
2022/06/27 03:00:56;;;;;;;;;2.60;2.60;;;;;21.55;48.33;100942.94;2070271;28;47686;-47
2022/06/27 03:01:58;;;;;;;;;4.20;3.80;;;;;21.55;48.29;100942.94;2070307;28;48442;-48
2022/06/27 03:02:59;;;;;;;;;4.00;4.00;;;;;21.54;48.34;100944.78;2070452;28;47998;-51
2022/06/27 03:04:00;;;;;;;;;2.60;2.00;;;;;21.54;48.83;100944.78;2070445;28;47743;-48
2022/06/27 03:05:01;;;;;;;;;2.80;2.40;;;;;21.55;48.25;100940.25;2070058;28;47267;-51
2022/06/27 03:06:06;;;;;;;;;1.67;1.67;;;;;21.55;49.07;100933.00;2062035;28;47241;-48
2022/06/27 03:07:07;;;;;;;;;2.40;2.40;;;;;21.56;48.77;100936.56;2062933;28;47711;-47
2022/06/27 03:08:07;;;;;;;;;4.00;2.67;;;;;21.55;48.77;100930.31;2064652;28;47928;-49
2022/06/27 03:09:08;;;;;;;;;2.00;2.00;;;;;21.56;48.74;100932.03;2063115;28;46760;-49
2022/06/27 03:10:12;;;;;;;;;3.00;3.00;;;;;21.57;48.76;100936.47;2070730;28;47433;-47
2022/06/27 03:11:15;;;;;;;;;2.80;2.80;;;;;21.59;48.52;100925.56;2065953;28;47745;-48
2022/06/27 03:12:16;;;;;;;;;1.80;0.00;;;;;21.59;48.67;100929.13;2062931;28;47943;-48
2022/06/27 03:13:16;;;;;;;;;2.50;2.50;;;;;21.60;48.00;100927.34;2070189;28;47526;-49
2022/06/27 03:14:17;;;;;;;;;1.50;1.50;;;;;21.62;48.40;100926.25;2070425;28;47821;-50
2022/06/27 03:15:18;;;;;;;;;2.25;2.25;;;;;21.62;48.35;100925.41;2070245;28;47700;-52
2022/06/27 03:16:21;;;;;;;;;4.00;3.40;;;;;21.62;48.44;100928.09;2070472;28;47440;-50
2022/06/27 03:17:21;;;;;;;;;2.00;2.00;;;;;21.63;48.70;100921.72;2069427;28;47538;-47
2022/06/27 03:18:22;;;;;;;;;1.00;1.00;;;;;21.63;48.31;100914.50;2053065;28;47467;-51
2022/06/27 03:19:22;;;;;;;;;2.67;2.67;;;;;21.63;48.41;100919.03;2051106;28;47407;-51
2022/06/27 03:20:23;;;;;;;;;3.67;2.67;;;;;21.63;48.08;100916.31;2063087;28;47177;-51
2022/06/27 03:21:23;;;;;;;;;1.67;1.67;;;;;21.63;48.08;100914.50;2070231;28;47260;-51
2022/06/27 03:22:23;;;;;;;;;2.00;2.00;;;;;21.64;48.49;100918.06;2070352;28;47365;-49
2022/06/27 03:23:24;;;;;;;;;2.00;2.00;;;;;21.64;47.88;100912.66;2070285;28;48138;-48
2022/06/27 03:24:24;;;;;;;;;1.25;1.25;;;;;21.65;47.87;100917.09;2070202;28;47716;-50
2022/06/27 03:25:25;;;;;;;;;1.00;1.00;;;;;21.66;48.01;100910.72;2070238;28;47601;-49
2022/06/27 03:26:25;;;;;;;;;2.00;2.00;;;;;21.66;48.30;100911.59;2070616;28;46213;-49
2022/06/27 03:27:26;;;;;;;;;3.00;3.00;;;;;21.66;47.87;100919.69;2069727;28;47455;-48
2022/06/27 03:28:26;;;;;;;;;1.00;1.00;;;;;21.65;48.03;100909.00;2069820;28;48294;-50
2022/06/27 03:29:26;;;;;;;;;2.25;2.25;;;;;21.66;47.87;100914.28;2070525;28;47899;-49
2022/06/27 03:30:27;;;;;;;;;1.50;1.50;;;;;21.67;47.81;100917.84;2053905;28;47763;-51
2022/06/27 03:31:27;;;;;;;;;2.00;2.00;;;;;21.68;47.65;100911.47;2082581;28;47443;-51
2022/06/27 03:32:28;;;;;;;;;1.50;1.50;;;;;21.66;48.29;100906.19;2090602;28;47283;-50
2022/06/27 03:33:29;;;;;;;;;2.25;1.25;;;;;21.67;47.71;100907.91;2086473;28;47678;-52
2022/06/27 03:34:29;;;;;;;;;1.80;1.80;;;;;21.68;47.63;100906.94;2088112;28;47349;-52
2022/06/27 03:35:30;;;;;;;;;1.00;1.00;;;;;21.69;48.26;100903.28;2087832;28;46904;-49
2022/06/27 03:36:31;;;;;;;;;1.00;1.00;;;;;21.70;47.67;100901.44;2087551;28;47346;-50
2022/06/27 03:37:31;;;;;;;;;2.25;2.25;;;;;21.70;48.07;100901.44;2095368;28;47496;-51
2022/06/27 03:38:32;;;;;;;;;2.25;2.25;;;;;21.70;47.77;100906.84;2091223;28;47706;-48
2022/06/27 03:39:33;;;;;;;;;2.00;2.00;;;;;21.70;48.00;100913.09;2087748;28;48243;-47
2022/06/27 03:40:34;;;;;;;;;1.75;1.75;;;;;21.69;48.11;100905.97;2087812;28;47511;-50
2022/06/27 03:41:34;;;;;;;;;0.80;0.80;;;;;21.69;48.29;100905.09;2090122;28;47555;-52
2022/06/27 03:42:34;;;;;;;;;2.25;2.25;;;;;21.68;47.76;100903.38;2096486;28;47400;-48
2022/06/27 03:43:35;;;;;;;;;2.25;2.25;;;;;21.67;47.79;100898.94;2090059;28;47172;-47
2022/06/27 03:44:35;;;;;;;;;3.50;3.50;;;;;21.67;47.72;100896.25;2088861;28;47337;-48
2022/06/27 03:45:36;;;;;;;;;2.75;2.75;;;;;21.66;47.50;100894.50;2088798;28;47622;-48
2022/06/27 03:46:37;;;;;;;;;3.00;3.00;;;;;21.65;47.73;100895.47;2095882;28;47628;-48
2022/06/27 03:47:49;;;;;;;;;3.00;2.00;;;;;21.64;47.64;100894.63;2096423;28;47946;-50
2022/06/27 03:50:09;;;;;;;;;2.00;2.00;;;;;21.65;48.22;100911.69;2094422;28;47971;-46
2022/06/27 03:51:10;;;;;;;;;2.25;2.25;;;;;21.63;47.83;100914.50;2090617;28;47566;-49
2022/06/27 03:52:11;;;;;;;;;1.80;1.80;;;;;21.62;47.66;100915.47;2089787;28;47515;-50
2022/06/27 03:53:11;;;;;;;;;2.00;2.00;;;;;21.61;47.96;100918.25;2089033;28;47811;-51
2022/06/27 03:54:12;;;;;;;;;2.00;2.00;;;;;21.59;47.92;100915.63;2089790;28;47523;-50
2022/06/27 03:55:12;;;;;;;;;2.00;2.00;;;;;21.58;48.14;100919.31;2090780;28;48068;-51
2022/06/27 03:56:13;;;;;;;;;2.80;2.80;;;;;21.58;47.87;100918.44;2088857;28;47642;-48
2022/06/27 03:57:13;;;;;;;;;2.25;2.25;;;;;21.59;48.16;100925.56;2089031;28;47701;-53
2022/06/27 03:58:14;;;;;;;;;1.50;1.50;;;;;21.57;48.06;100912.16;2089843;28;47339;-50
2022/06/27 03:59:14;;;;;;;;;2.00;2.00;;;;;21.58;47.86;100918.44;2089042;28;47557;-52
2022/06/27 04:00:15;;;;;;;;;2.75;2.75;;;;;21.57;48.25;100917.56;2088709;28;47767;-52
2022/06/27 04:01:16;;;;;;;;;1.00;1.00;;;;;21.57;48.37;100917.56;2089022;28;47576;-47
2022/06/27 04:02:16;;;;;;;;;2.25;2.25;;;;;21.58;48.33;100916.59;2094729;28;47567;-49
2022/06/27 04:03:16;;;;;;;;;1.25;1.25;;;;;21.57;47.64;100912.16;2091271;28;47653;-51
2022/06/27 04:04:17;;;;;;;;;2.25;2.25;;;;;21.58;47.79;100905.78;2089022;28;47981;-50
2022/06/27 04:05:17;;;;;;;;;2.25;2.25;;;;;21.60;48.22;100903.03;2088779;28;47276;-49
2022/06/27 04:06:18;;;;;;;;;1.00;1.00;;;;;21.60;48.34;100916.53;2089462;28;47488;-48
2022/06/27 04:07:18;;;;;;;;;3.00;3.00;;;;;21.61;47.84;100920.97;2088981;28;47366;-49
2022/06/27 04:08:19;;;;;;;;;6.00;2.00;;;;;21.61;47.78;100929.06;2088489;28;47518;-51
2022/06/27 04:09:19;;;;;;;;;2.00;2.00;;;;;21.62;48.33;100933.50;2088811;28;47969;-49
2022/06/27 04:10:19;;;;;;;;;2.00;1.75;;;;;21.61;48.21;100932.63;2088679;28;47512;-51
2022/06/27 04:11:20;;;;;;;;;5.00;5.00;;;;;21.60;47.82;100922.78;2093136;28;47322;-50
2022/06/27 04:12:20;;;;;;;;;2.00;2.00;;;;;21.61;48.08;100910.16;2088953;28;47531;-51
2022/06/27 04:13:21;;;;;;;;;2.00;2.00;;;;;21.61;48.42;100913.72;2093248;28;47827;-49
2022/06/27 04:14:21;;;;;;;;;3.75;3.75;;;;;21.63;48.24;100921.72;2093310;28;47578;-51
2022/06/27 04:15:22;;;;;;;;;4.00;2.25;;;;;21.61;48.11;100932.63;2088530;28;47460;-49
2022/06/27 04:16:22;;;;;;;;;3.00;3.00;;;;;21.61;48.13;100937.16;2088258;28;47251;-49
2022/06/27 04:17:22;;;;;;;;;3.25;3.25;;;;;21.61;48.69;100939.88;2088132;28;47686;-48
2022/06/27 04:18:23;;;;;;;;;2.00;2.00;;;;;21.61;48.18;100942.56;2089600;28;47314;-47
2022/06/27 04:19:23;;;;;;;;;3.75;3.75;;;;;21.63;48.76;100940.63;2091318;28;47478;-49
2022/06/27 04:20:24;;;;;;;;;4.00;4.00;;;;;21.62;48.73;100934.38;2088930;28;47642;-52
2022/06/27 04:21:25;;;;;;;;;2.50;2.50;;;;;21.63;48.39;100937.94;2089214;28;47851;-52
2022/06/27 04:22:25;;;;;;;;;3.50;3.50;;;;;21.63;48.93;100936.09;2084006;28;45644;-49
2022/06/27 04:23:26;;;;;;;;;5.00;4.00;;;;;21.65;48.73;100944.09;2084067;28;47685;-50
2022/06/27 04:24:26;;;;;;;;;3.75;3.75;;;;;21.66;48.51;100940.44;2085091;28;47339;-51
2022/06/27 04:25:27;;;;;;;;;5.00;5.00;;;;;21.66;48.91;100944.00;2080703;28;47731;-50
2022/06/27 04:26:27;;;;;;;;;3.00;3.00;;;;;21.67;49.03;100950.25;2089025;28;47641;-50
2022/06/27 04:27:28;;;;;;;;;3.00;3.00;;;;;21.66;48.43;100952.09;2088743;28;47817;-48
2022/06/27 04:28:28;;;;;;;;;6.00;3.75;;;;;21.67;48.60;100955.66;2089182;28;47742;-47
2022/06/27 04:29:30;;;;;;;;;4.00;4.00;;;;;21.67;49.09;100956.53;2081880;28;47380;-46
2022/06/27 04:30:31;;;;;;;;;4.40;4.00;;;;;21.68;48.67;100952.00;2082382;28;47817;-47
2022/06/27 04:31:31;;;;;;;;;4.20;3.20;;;;;21.68;48.95;100952.88;2088955;28;47733;-50
2022/06/27 04:32:32;;;;;;;;;4.75;3.75;;;;;21.69;48.64;100961.84;2088971;28;47067;-50
2022/06/27 04:33:33;;;;;;;;;5.80;4.80;;;;;21.70;48.80;100966.25;2087694;28;47574;-51
2022/06/27 04:34:33;;;;;;;;;4.00;3.75;;;;;21.70;49.29;100964.44;2080344;28;47970;-50
2022/06/27 04:35:34;;;;;;;;;3.75;3.00;;;;;21.71;49.04;100959.91;2080361;28;47142;-50
2022/06/27 04:36:34;;;;;;;;;4.75;4.25;;;;;21.72;48.88;100964.34;2080686;28;47931;-49
2022/06/27 04:37:35;;;;;;;;;4.25;3.50;;;;;21.72;49.15;100958.94;2080964;28;47545;-49
2022/06/27 04:38:36;;;;;;;;;4.00;4.00;;;;;21.73;48.73;100963.41;2080737;28;47390;-48
2022/06/27 04:39:37;;;;;;;;;2.00;2.00;;;;;21.74;48.99;100968.69;2080521;28;48009;-49
2022/06/27 04:40:37;;;;;;;;;4.20;3.40;;;;;21.76;48.73;100975.81;2080148;28;47199;-47
2022/06/27 04:41:38;;;;;;;;;3.00;3.00;;;;;21.75;48.72;100983.06;2082053;28;46471;-50
2022/06/27 04:42:40;;;;;;;;;2.25;2.25;;;;;21.77;48.68;100980.25;2089150;28;47307;-51
2022/06/27 04:43:40;;;;;;;;;4.60;4.60;;;;;21.77;48.92;100983.84;2089015;28;47781;-50
2022/06/27 04:44:42;;;;;;;;;4.00;4.00;;;;;21.80;49.02;100993.56;2087721;28;45980;-49
2022/06/27 04:45:42;;;;;;;;;5.00;5.00;;;;;21.81;49.16;100998.88;2093843;28;47752;-51